Terminal Aerodrome Forecast
Issued by NWS Sioux Falls, SD

Home | Current Version | Previous Version | Graphics & Text | Print | Product List | Glossary Off
Versions: 1 2 3 4 5 6 7 8 9 10 11 12 13 14 15 16 17 18 19 20 21 22 23 24 25

000
FTUS43 KFSD 290346 AAA
TAFSUX
TAF AMD
KSUX 290346Z 2904/2924 33025G35KT P6SM OVC015
      TEMPO 2905/2907 5SM BR OVC009
     FM290700 33028G39KT P6SM OVC013
     FM291600 33020G29KT P6SM SCT025
     FM292100 34016G23KT P6SM FEW030=

USA.gov is the U.S. government's official web portal to all federal, state and local government web resources and services.